Time;durP1;ratioP1;P1;durP2;ratioP2;P2;SDS_P1;SDS_P2;PMS_P1;PMS_P2;Temp;Humidity;BMP_temperature;BMP_pressure;BME280_temperature;BME280_humidity;BME280_pressure;Samples;Min_cycle;Max_cycle;Signal;HPM_P1;HPM_P2
2023/10/04 00:02:01;;;;;;;7.40;1.60;;;;;;;21.05;64.01;101068.72;5092755;28;20030;-84
2023/10/04 00:04:26;;;;;;;7.57;2.13;;;;;;;21.04;64.04;101058.94;5093206;28;20012;-83
2023/10/04 00:06:51;;;;;;;7.30;1.67;;;;;;;21.06;63.98;101064.22;5093767;28;20320;-84
2023/10/04 00:09:17;;;;;;;9.80;1.77;;;;;;;21.07;64.16;101060.59;5092476;28;20024;-84
2023/10/04 00:11:42;;;;;;;10.70;1.80;;;;;;;21.11;64.05;101064.94;5092368;28;20016;-83
2023/10/04 00:14:08;;;;;;;8.97;2.27;;;;;;;21.14;63.90;101056.81;5094051;28;20105;-83
2023/10/04 00:16:34;;;;;;;7.03;1.80;;;;;;;21.14;63.71;101062.16;5092189;28;20099;-87
2023/10/04 00:18:59;;;;;;;8.00;1.67;;;;;;;21.16;63.86;101054.03;5092729;28;20469;-84
2023/10/04 00:21:25;;;;;;;8.80;1.70;;;;;;;21.17;63.74;101062.03;5092377;28;20091;-84
2023/10/04 00:23:50;;;;;;;9.40;1.90;;;;;;;21.20;63.71;101061.03;5091218;28;20028;-88
2023/10/04 00:26:15;;;;;;;7.67;1.77;;;;;;;21.20;63.75;101050.31;5092151;28;20067;-84
2023/10/04 00:28:41;;;;;;;8.20;1.73;;;;;;;21.20;63.80;101056.56;5093319;28;20020;-84
2023/10/04 00:31:06;;;;;;;6.72;1.77;;;;;;;21.21;63.71;101054.75;5092107;28;20024;-84
2023/10/04 00:33:32;;;;;;;10.57;1.70;;;;;;;21.21;63.55;101058.31;5090916;28;20496;-84
2023/10/04 00:36:07;;;;;;;10.73;1.90;;;;;;;21.23;63.29;101063.63;5091730;28;20080;-83
2023/10/04 00:38:33;;;;;;;7.85;1.80;;;;;;;21.21;63.24;101058.31;5091900;28;20016;-89
2023/10/04 00:40:58;;;;;;;7.47;1.90;;;;;;;21.20;63.46;101061.03;5091090;28;20035;-83
2023/10/04 00:43:24;;;;;;;8.73;1.65;;;;;;;21.20;63.53;101053.91;5090339;28;20028;-84
2023/10/04 00:45:49;;;;;;;9.63;1.87;;;;;;;21.21;63.15;101055.63;5091293;28;20028;-83
2023/10/04 00:48:20;;;;;;;7.33;1.57;;;;;;;21.21;63.05;101052.97;5092207;28;20234;-85
2023/10/04 00:50:47;;;;;;;9.35;1.63;;;;;;;21.20;62.93;101051.22;5093134;28;20486;-83
2023/10/04 00:53:26;;;;;;;9.80;1.63;;;;;;;21.18;62.89;101050.41;5093083;28;20032;-89
2023/10/04 00:55:57;;;;;;;7.70;1.70;;;;;;;21.19;63.07;101053.94;5090487;28;20039;-83
2023/10/04 00:58:22;;;;;;;9.67;2.17;;;;;;;21.18;62.99;101047.72;5092152;28;20054;-83
2023/10/04 01:00:48;;;;;;;8.48;1.75;;;;;;;21.17;63.02;101051.34;5091223;28;20051;-91
2023/10/04 01:03:24;;;;;;;8.73;2.15;;;;;;;21.15;63.19;101039.81;5091528;28;20032;-87
2023/10/04 01:05:51;;;;;;;7.27;2.00;;;;;;;21.15;62.95;101042.47;5091809;28;20051;-83
2023/10/04 01:08:21;;;;;;;7.47;1.88;;;;;;;21.13;62.67;101038.97;5092282;28;20507;-88
2023/10/04 01:10:49;;;;;;;9.50;1.95;;;;;;;21.12;62.67;101042.59;5091684;28;20027;-89
2023/10/04 01:13:18;;;;;;;10.43;1.88;;;;;;;21.08;62.78;101041.81;5090962;28;20544;-83
2023/10/04 01:15:44;;;;;;;8.30;1.60;;;;;;;21.07;62.49;101034.72;5091659;28;20024;-84
2023/10/04 01:18:15;;;;;;;9.57;1.77;;;;;;;21.04;63.02;101040.19;5089593;28;20178;-83
2023/10/04 01:20:41;;;;;;;7.63;1.50;;;;;;;21.03;62.55;101035.75;5092037;28;20054;-84
2023/10/04 01:23:10;;;;;;;6.20;1.47;;;;;;;21.03;62.65;101027.72;5091975;28;20285;-84
2023/10/04 01:25:38;;;;;;;7.05;1.70;;;;;;;21.01;62.63;101039.41;5091292;28;20066;-83
2023/10/04 01:28:11;;;;;;;8.13;1.60;;;;;;;21.00;62.65;101027.84;5090616;28;20052;-85
2023/10/04 01:30:37;;;;;;;7.68;1.52;;;;;;;20.99;62.68;101025.19;5090428;28;20024;-83
2023/10/04 01:33:04;;;;;;;7.83;1.60;;;;;;;20.97;62.62;101014.53;5089068;28;20042;-84
2023/10/04 01:35:30;;;;;;;5.88;1.58;;;;;;;20.98;62.78;101008.28;5089895;28;20095;-84
2023/10/04 01:37:55;;;;;;;6.03;1.70;;;;;;;20.97;62.44;101006.50;5091026;28;20054;-86
2023/10/04 01:40:31;;;;;;;7.67;1.50;;;;;;;20.94;62.63;101007.50;5093770;28;20282;-86
2023/10/04 01:42:57;;;;;;;8.00;1.67;;;;;;;20.93;62.41;101000.41;5091664;28;20036;-83
2023/10/04 01:45:23;;;;;;;11.80;1.60;;;;;;;20.94;62.49;100996.78;5090969;28;20031;-83
2023/10/04 01:47:50;;;;;;;9.13;1.63;;;;;;;20.92;62.41;100993.31;5090206;28;20031;-84
2023/10/04 01:50:16;;;;;;;8.35;1.55;;;;;;;20.92;62.41;100998.66;5089214;28;20028;-84
2023/10/04 01:52:49;;;;;;;6.80;1.67;;;;;;;20.92;62.18;100990.63;5089427;28;20078;-87
2023/10/04 01:55:16;;;;;;;6.88;1.55;;;;;;;20.93;62.28;100988.81;5089300;28;20039;-83
2023/10/04 01:57:43;;;;;;;9.55;1.73;;;;;;;20.92;62.41;100989.72;5089565;28;20101;-83
2023/10/04 02:00:10;;;;;;;7.13;1.83;;;;;;;20.91;62.33;100991.56;5090630;28;20027;-84
2023/10/04 02:02:40;;;;;;;8.40;1.90;;;;;;;20.92;62.22;100989.72;5091766;28;20032;-83
2023/10/04 02:05:16;;;;;;;6.10;1.50;;;;;;;20.89;62.14;100987.16;5091345;28;20024;-84
2023/10/04 02:07:42;;;;;;;7.68;1.50;;;;;;;20.85;62.41;100983.72;5090485;28;20081;-84
2023/10/04 02:10:17;;;;;;;8.27;1.70;;;;;;;20.85;62.02;100985.53;5089265;28;20108;-83
2023/10/04 02:12:43;;;;;;;6.73;1.50;;;;;;;20.82;62.15;100982.97;5089381;28;20273;-83
2023/10/04 02:15:14;;;;;;;7.85;1.48;;;;;;;20.83;62.32;100979.38;5089963;28;20036;-88
2023/10/04 02:17:44;;;;;;;7.32;1.60;;;;;;;20.84;62.55;100979.28;5090766;28;20027;-85
2023/10/04 02:20:20;;;;;;;7.43;1.55;;;;;;;20.88;62.10;100980.97;5091908;28;20440;-84
2023/10/04 02:22:47;;;;;;;8.57;1.83;;;;;;;20.87;61.99;100973.84;5094059;28;20070;-83
2023/10/04 02:25:13;;;;;;;8.85;1.40;;;;;;;20.88;62.10;100970.25;5092858;28;20024;-85
2023/10/04 02:27:41;;;;;;;8.05;1.80;;;;;;;20.90;62.27;100967.50;5092554;28;20032;-83
2023/10/04 02:30:14;;;;;;;7.40;1.63;;;;;;;20.87;62.13;100967.63;5091542;28;20028;-84
2023/10/04 02:32:41;;;;;;;7.05;1.38;;;;;;;20.84;62.33;100960.56;5092429;28;20303;-84
2023/10/04 02:35:07;;;;;;;5.97;1.40;;;;;;;20.82;62.01;100962.41;5093855;28;20020;-84
2023/10/04 02:37:32;;;;;;;7.30;1.38;;;;;;;20.82;62.21;100958.88;5093715;28;20121;-89
2023/10/04 02:39:59;;;;;;;7.55;1.50;;;;;;;20.80;62.14;100958.94;5093857;28;20098;-84
2023/10/04 02:42:27;;;;;;;6.97;1.40;;;;;;;20.78;62.09;100952.72;5093640;28;20032;-91
2023/10/04 02:44:52;;;;;;;7.15;1.35;;;;;;;20.78;62.18;100955.41;5093390;28;20039;-87
2023/10/04 02:47:18;;;;;;;8.73;2.00;;;;;;;20.74;61.83;100956.44;5094056;28;20086;-84
2023/10/04 02:49:43;;;;;;;7.47;1.20;;;;;;;20.70;61.88;100960.16;5093274;28;20028;-83
2023/10/04 02:52:12;;;;;;;7.80;1.70;;;;;;;20.68;61.97;100962.88;5093867;28;20020;-84
2023/10/04 02:54:38;;;;;;;5.95;1.30;;;;;;;20.63;61.99;100955.03;5093119;28;20036;-83
2023/10/04 02:57:08;;;;;;;6.90;1.40;;;;;;;20.60;61.95;100962.28;5094871;28;20027;-83
2023/10/04 02:59:34;;;;;;;6.22;1.25;;;;;;;20.58;62.20;100962.31;5094254;28;20103;-84
2023/10/04 03:02:01;;;;;;;8.80;1.65;;;;;;;20.58;62.12;100962.31;5093643;28;20152;-83
2023/10/04 03:04:28;;;;;;;6.97;1.38;;;;;;;20.58;62.25;100965.00;5093016;28;20400;-84
2023/10/04 03:06:54;;;;;;;7.53;1.45;;;;;;;20.58;61.85;100966.81;5093136;28;20438;-84
2023/10/04 03:09:19;;;;;;;5.63;1.50;;;;;;;20.55;61.66;100961.56;5092994;28;20499;-90
2023/10/04 03:11:45;;;;;;;7.55;1.27;;;;;;;20.54;61.96;100955.34;5093867;28;20020;-83
2023/10/04 03:14:12;;;;;;;6.67;1.20;;;;;;;20.51;62.28;100958.13;5094321;28;20039;-89
2023/10/04 03:16:40;;;;;;;7.13;1.67;;;;;;;20.51;61.95;100964.38;5093481;28;20028;-84
2023/10/04 03:19:06;;;;;;;6.80;1.20;;;;;;;20.46;61.80;100962.75;5094203;28;20028;-84
2023/10/04 03:21:33;;;;;;;5.80;1.33;;;;;;;20.39;62.13;100966.59;5094305;28;20032;-83
2023/10/04 03:23:59;;;;;;;8.10;1.33;;;;;;;20.35;62.32;100963.97;5092463;28;20069;-86
2023/10/04 03:26:25;;;;;;;7.93;1.50;;;;;;;20.35;62.17;100971.16;5092365;28;20051;-83
2023/10/04 03:28:50;;;;;;;8.85;1.50;;;;;;;20.33;62.61;100971.19;5092397;28;20099;-84
2023/10/04 03:31:18;;;;;;;5.23;1.10;;;;;;;20.33;62.53;100968.50;5092159;28;20066;-87
2023/10/04 03:33:49;;;;;;;6.93;1.50;;;;;;;20.33;62.36;100968.50;5092908;28;20092;-84
2023/10/04 03:36:21;;;;;;;8.60;1.52;;;;;;;20.34;62.72;100964.06;5096437;28;20464;-85
2023/10/04 03:38:49;;;;;;;6.07;1.50;;;;;;;20.33;62.77;100971.19;5093235;28;20391;-84
2023/10/04 03:41:16;;;;;;;5.32;1.40;;;;;;;20.32;62.60;100982.81;5091911;28;20040;-83
2023/10/04 03:43:41;;;;;;;7.03;1.40;;;;;;;20.33;62.52;100986.38;5093038;28;20056;-83
2023/10/04 03:46:16;;;;;;;5.85;1.10;;;;;;;20.30;62.84;100984.66;5092499;28;20085;-84
2023/10/04 03:48:43;;;;;;;6.47;1.40;;;;;;;20.26;62.86;100980.34;5092903;28;20028;-83
2023/10/04 03:51:08;;;;;;;8.17;1.30;;;;;;;20.26;62.56;100982.16;5093201;28;20102;-89
2023/10/04 03:53:34;;;;;;;6.50;1.23;;;;;;;20.25;62.46;100985.75;5090880;28;20903;-83
2023/10/04 03:55:59;;;;;;;7.47;1.33;;;;;;;20.25;62.54;100991.09;5093295;28;20396;-84
2023/10/04 03:58:25;;;;;;;7.00;1.30;;;;;;;20.22;62.49;100987.59;5093183;28;20020;-87
2023/10/04 04:00:50;;;;;;;6.95;1.30;;;;;;;20.21;62.09;100995.69;5092381;28;20555;-89
2023/10/04 04:03:16;;;;;;;8.53;1.80;;;;;;;20.20;62.11;100988.59;5092822;28;20040;-84
2023/10/04 04:05:45;;;;;;;5.47;1.10;;;;;;;20.15;61.97;100983.38;5092827;28;20413;-83
2023/10/04 04:08:12;;;;;;;6.97;1.58;;;;;;;20.16;62.32;100986.94;5092657;28;20028;-88
2023/10/04 04:10:38;;;;;;;6.67;1.60;;;;;;;20.15;61.80;100985.19;5093544;28;20053;-90
2023/10/04 04:13:04;;;;;;;7.47;1.70;;;;;;;20.16;61.74;100992.28;5091622;28;20028;-83
2023/10/04 04:15:33;;;;;;;6.05;1.17;;;;;;;20.16;61.85;100992.28;5091390;28;20038;-87
2023/10/04 04:17:59;;;;;;;5.80;1.17;;;;;;;20.14;61.84;100999.50;5090331;28;20026;-83
2023/10/04 04:20:26;;;;;;;6.75;1.60;;;;;;;20.15;61.64;100993.22;5090830;28;20024;-83
2023/10/04 04:22:55;;;;;;;9.17;1.60;;;;;;;20.14;61.54;101002.16;5090255;28;20020;-83
2023/10/04 04:25:21;;;;;;;6.55;1.40;;;;;;;20.13;61.71;101000.38;5090879;28;20074;-87
2023/10/04 04:27:49;;;;;;;6.80;1.52;;;;;;;20.10;61.60;101008.50;5091199;28;20032;-83
2023/10/04 04:30:19;;;;;;;5.45;1.25;;;;;;;20.05;61.65;101014.88;5091638;28;20024;-84
2023/10/04 04:32:47;;;;;;;9.00;1.65;;;;;;;20.03;61.71;101018.56;5090605;28;20062;-83
2023/10/04 04:35:22;;;;;;;8.00;1.37;;;;;;;19.99;61.57;101031.13;5091474;28;20059;-83
2023/10/04 04:37:48;;;;;;;6.40;1.20;;;;;;;19.95;61.66;101026.81;5092047;28;20563;-83
2023/10/04 04:40:20;;;;;;;10.23;1.70;;;;;;;19.95;61.94;101026.81;5092772;28;20028;-85
2023/10/04 04:42:47;;;;;;;6.00;1.15;;;;;;;19.94;61.90;101022.38;5093674;28;20027;-84
2023/10/04 04:45:25;;;;;;;5.07;1.30;;;;;;;19.93;61.45;101023.31;5092462;28;20032;-85
2023/10/04 04:47:51;;;;;;;7.50;1.37;;;;;;;19.90;61.74;101018.03;5094360;28;20185;-87
2023/10/04 04:50:17;;;;;;;5.78;1.45;;;;;;;19.89;61.78;101010.91;5092518;28;20024;-84
2023/10/04 04:52:44;;;;;;;7.22;1.45;;;;;;;19.89;61.80;101013.56;5091493;28;20161;-88
2023/10/04 04:55:11;;;;;;;9.40;1.35;;;;;;;19.91;61.71;101009.13;5090331;28;20043;-83
2023/10/04 04:57:37;;;;;;;8.70;1.20;;;;;;;19.93;61.41;101015.28;5093367;28;20032;-83
2023/10/04 05:00:31;;;;;;;6.23;1.30;;;;;;;19.94;61.61;101023.25;5093609;28;20086;-83
2023/10/04 05:02:48;;;;;;;6.07;1.30;;;;;;;19.95;61.50;101021.47;5091825;28;20079;-86
2023/10/04 05:05:13;;;;;;;5.67;1.13;;;;;;;19.98;61.66;101018.69;5091962;28;20072;-83
2023/10/04 05:07:40;;;;;;;5.85;1.70;;;;;;;20.00;61.51;101023.97;5090084;28;20388;-83
2023/10/04 05:10:10;;;;;;;6.18;1.73;;;;;;;20.01;61.30;101015.03;5091770;28;20487;-84
2023/10/04 05:12:37;;;;;;;6.47;1.37;;;;;;;20.01;61.51;101018.59;5092175;28;20471;-84
2023/10/04 05:15:21;;;;;;;7.63;1.20;;;;;;;20.04;61.62;101018.47;5096113;28;20031;-90
2023/10/04 05:17:50;;;;;;;5.22;1.40;;;;;;;20.02;61.20;101022.16;5092541;28;20556;-83
2023/10/04 05:20:19;;;;;;;7.65;1.27;;;;;;;20.01;61.50;101021.25;5093992;28;20209;-86
2023/10/04 05:22:45;;;;;;;6.72;1.42;;;;;;;20.01;61.23;101015.91;5092746;28;20058;-85
2023/10/04 05:25:11;;;;;;;6.37;1.30;;;;;;;20.01;61.27;101015.91;5093019;28;20043;-83
2023/10/04 05:27:37;;;;;;;6.13;1.50;;;;;;;20.00;61.33;101014.16;5093880;28;20529;-85
2023/10/04 05:30:04;;;;;;;7.65;1.70;;;;;;;19.98;61.08;101016.00;5092092;28;20028;-84
2023/10/04 05:32:29;;;;;;;7.10;1.65;;;;;;;19.97;61.18;101019.59;5090580;28;20035;-90
2023/10/04 05:34:55;;;;;;;7.10;1.27;;;;;;;19.96;61.02;101016.97;5091027;28;20040;-83
2023/10/04 05:37:21;;;;;;;7.47;1.83;;;;;;;19.95;61.35;101021.47;5090646;28;20055;-90
2023/10/04 05:39:46;;;;;;;6.80;1.23;;;;;;;19.97;61.16;101021.38;5090833;28;20024;-83
2023/10/04 05:42:11;;;;;;;8.13;1.33;;;;;;;19.94;61.02;101020.56;5090907;28;20024;-83
2023/10/04 05:44:38;;;;;;;5.27;1.23;;;;;;;19.93;60.81;101021.50;5090139;28;20016;-83
2023/10/04 05:47:05;;;;;;;7.97;1.35;;;;;;;19.94;60.98;101019.72;5091181;28;20028;-84
2023/10/04 05:49:31;;;;;;;7.95;1.48;;;;;;;19.93;61.05;101016.16;5095731;28;20061;-83
2023/10/04 05:51:57;;;;;;;6.22;1.40;;;;;;;19.91;61.01;101025.16;5092912;28;20599;-96
2023/10/04 05:54:23;;;;;;;6.93;1.20;;;;;;;19.89;61.08;101026.94;5091386;28;20475;-84
2023/10/04 05:56:50;;;;;;;8.15;1.30;;;;;;;19.89;61.05;101030.50;5111558;28;20028;-89
2023/10/04 05:59:15;;;;;;;6.72;1.35;;;;;;;19.89;60.60;101029.59;5108389;28;20722;-84
2023/10/04 06:01:41;;;;;;;6.13;1.37;;;;;;;19.89;61.01;101033.16;5091966;28;20090;-87
2023/10/04 06:04:07;;;;;;;7.20;1.40;;;;;;;19.85;61.14;101035.97;5083826;28;20057;-84
2023/10/04 06:06:32;;;;;;;6.87;1.43;;;;;;;19.83;61.22;101043.16;5093562;28;20061;-90
2023/10/04 06:08:59;;;;;;;7.13;1.30;;;;;;;19.81;61.09;101043.22;5117659;28;20284;-83
2023/10/04 06:11:25;;;;;;;6.28;1.45;;;;;;;19.79;61.03;101058.44;5103563;28;20028;-86
2023/10/04 06:13:50;;;;;;;7.33;1.67;;;;;;;19.79;61.09;101059.31;5104831;28;20133;-85
2023/10/04 06:16:19;;;;;;;8.43;1.67;;;;;;;19.83;61.21;101048.50;5099914;28;20486;-83
2023/10/04 06:18:47;;;;;;;8.23;1.80;;;;;;;19.84;61.07;101055.59;5093296;28;20028;-83
2023/10/04 06:21:16;;;;;;;6.80;1.27;;;;;;;19.85;60.80;101042.22;5095129;28;20020;-86
2023/10/04 06:23:43;;;;;;;5.90;1.38;;;;;;;19.86;60.51;101051.97;5101741;28;20024;-83
2023/10/04 06:26:09;;;;;;;5.30;1.17;;;;;;;19.86;60.50;101057.31;5090899;28;20033;-88
2023/10/04 06:28:34;;;;;;;6.40;1.37;;;;;;;19.90;60.79;101055.44;5089349;28;20020;-95
2023/10/04 06:31:02;;;;;;;7.38;1.20;;;;;;;19.93;60.54;101060.72;5103766;28;20043;-95
2023/10/04 06:33:27;;;;;;;7.30;1.33;;;;;;;19.93;60.44;101055.38;5094401;28;20048;-82
2023/10/04 06:35:53;;;;;;;7.07;1.50;;;;;;;19.90;60.68;101066.13;5095412;28;20027;-87
2023/10/04 06:38:18;;;;;;;5.33;1.50;;;;;;;19.90;60.63;101075.00;5095312;28;20415;-83
2023/10/04 06:40:43;;;;;;;6.70;1.30;;;;;;;19.92;60.83;101069.66;5107033;28;20016;-90
2023/10/04 06:43:10;;;;;;;6.00;1.40;;;;;;;19.99;60.44;101081.91;5102967;28;20091;-84
2023/10/04 06:45:37;;;;;;;8.80;1.30;;;;;;;20.04;60.42;101069.28;5112677;28;20146;-84
2023/10/04 06:48:04;;;;;;;5.03;0.98;;;;;;;20.05;60.16;101068.34;5112876;28;20050;-82
2023/10/04 06:50:35;;;;;;;6.90;1.40;;;;;;;20.07;60.48;101077.19;5115201;28;20435;-91
2023/10/04 06:53:02;;;;;;;6.43;1.50;;;;;;;20.08;59.95;101078.94;5116040;28;20488;-82
2023/10/04 06:55:28;;;;;;;5.23;1.17;;;;;;;20.10;59.96;101088.72;5117674;28;20069;-81
2023/10/04 06:57:55;;;;;;;10.32;1.52;;;;;;;20.08;60.06;101081.63;5087352;28;20028;-83
2023/10/04 07:00:29;;;;;;;6.82;1.65;;;;;;;20.10;60.19;101086.03;5078604;28;20127;-95
2023/10/04 07:02:58;;;;;;;9.07;1.48;;;;;;;20.10;60.19;101094.97;5094857;28;20119;-93
2023/10/04 07:05:44;;;;;;;7.18;1.60;;;;;;;20.08;60.11;101096.81;5101410;28;20020;-82
2023/10/04 07:08:15;;;;;;;7.90;1.50;;;;;;;20.11;59.98;101094.03;5111133;28;20565;-90
2023/10/04 07:10:41;;;;;;;10.15;1.90;;;;;;;20.10;60.25;101094.06;5114038;28;20392;-89
2023/10/04 07:13:07;;;;;;;10.70;1.50;;;;;;;20.02;60.48;101097.88;5117271;28;20028;-84
2023/10/04 07:15:38;;;;;;;6.00;1.47;;;;;;;20.01;60.51;101101.47;5115043;28;20026;-84
2023/10/04 07:18:10;;;;;;;11.10;1.52;;;;;;;20.08;60.01;101092.31;5120275;28;20616;-86
2023/10/04 07:20:35;;;;;;;6.88;1.35;;;;;;;20.23;59.71;101093.63;5116827;28;20034;-90
2023/10/04 07:23:07;;;;;;;6.32;1.30;;;;;;;20.46;59.60;101092.03;5112648;28;20099;-92
2023/10/04 07:25:34;;;;;;;10.27;1.47;;;;;;;20.70;58.88;101084.13;5096104;28;20032;-85
2023/10/04 07:28:02;;;;;;;11.32;1.67;;;;;;;20.93;58.61;101080.72;5098951;28;20042;-88
2023/10/04 07:30:33;;;;;;;7.85;1.30;;;;;;;21.11;58.04;101072.97;5107184;28;20084;-87
2023/10/04 07:32:59;;;;;;;6.30;1.33;;;;;;;21.17;57.38;101062.03;5100216;28;20067;-91
2023/10/04 07:35:26;;;;;;;7.43;1.60;;;;;;;21.20;57.55;101050.31;5104996;28;20036;-91
2023/10/04 07:37:52;;;;;;;5.93;1.30;;;;;;;21.29;57.35;101043.75;5099303;28;20084;-82
2023/10/04 07:40:20;;;;;;;8.05;1.48;;;;;;;21.45;56.90;101047.63;5116040;28;20027;-90
2023/10/04 07:42:46;;;;;;;6.30;1.35;;;;;;;21.57;56.97;101038.25;5114493;28;20557;-95
2023/10/04 07:45:13;;;;;;;5.70;1.67;;;;;;;21.75;56.47;101046.56;5112089;28;20040;-89
2023/10/04 07:47:43;;;;;;;7.28;1.50;;;;;;;21.90;56.12;101062.03;5076099;28;20036;-94
2023/10/04 07:50:10;;;;;;;11.00;1.80;;;;;;;21.99;55.89;101066.19;5075489;28;20461;-88
2023/10/04 07:52:40;;;;;;;6.13;1.30;;;;;;;22.06;55.76;101056.09;5113204;28;20040;-90
2023/10/04 07:55:12;;;;;;;6.75;1.60;;;;;;;22.18;55.46;101055.59;5116176;28;20059;-83
2023/10/04 07:57:42;;;;;;;7.23;1.30;;;;;;;22.21;55.43;101065.34;5112294;27;20024;-81
2023/10/04 08:00:13;;;;;;;5.50;1.35;;;;;;;22.29;55.18;101067.72;5102851;28;20028;-87
2023/10/04 08:02:45;;;;;;;9.07;1.23;;;;;;;22.47;55.19;101066.13;5089613;28;20032;-82
2023/10/04 08:05:13;;;;;;;4.97;1.30;;;;;;;22.61;54.75;101069.09;5091658;28;20430;-81
2023/10/04 08:07:38;;;;;;;6.15;1.38;;;;;;;22.75;54.27;101070.31;5091344;28;20032;-86
2023/10/04 08:10:05;;;;;;;9.00;1.40;;;;;;;22.86;54.01;101069.88;5091450;28;20027;-82
2023/10/04 08:12:30;;;;;;;6.45;1.30;;;;;;;22.92;53.92;101073.16;5091098;28;20472;-82
2023/10/04 08:14:58;;;;;;;8.70;1.83;;;;;;;22.97;53.81;101078.34;5091554;28;20076;-86
2023/10/04 08:17:23;;;;;;;7.90;1.50;;;;;;;23.00;53.60;101074.63;5094675;28;20020;-81
2023/10/04 08:19:49;;;;;;;6.20;1.40;;;;;;;23.03;53.67;101077.19;5095537;28;20043;-84
2023/10/04 08:22:16;;;;;;;6.65;1.20;;;;;;;23.00;53.63;101077.31;5112190;28;20028;-93
2023/10/04 08:24:44;;;;;;;8.00;1.50;;;;;;;23.07;53.56;101074.31;5109074;28;20036;-87
2023/10/04 08:27:09;;;;;;;6.43;1.27;;;;;;;23.12;53.29;101079.50;5109157;28;20421;-93
2023/10/04 08:29:36;;;;;;;7.03;1.60;;;;;;;23.17;53.52;101077.47;5099331;28;20110;-94
2023/10/04 08:32:03;;;;;;;7.38;1.52;;;;;;;23.23;52.65;101065.59;5086316;28;20025;-88
2023/10/04 08:34:28;;;;;;;6.18;1.30;;;;;;;23.29;53.10;101073.41;5080665;28;20040;-90
2023/10/04 08:36:56;;;;;;;8.17;1.27;;;;;;;23.35;52.61;101070.44;5085465;28;20039;-83
2023/10/04 08:39:21;;;;;;;8.57;1.60;;;;;;;23.43;52.66;101064.72;5111620;28;20383;-85
2023/10/04 08:41:48;;;;;;;8.20;1.63;;;;;;;23.53;52.09;101067.00;5111723;28;20024;-87
2023/10/04 08:44:14;;;;;;;9.27;1.70;;;;;;;23.57;51.83;101071.28;5111999;28;20024;-88
2023/10/04 08:46:43;;;;;;;8.30;1.67;;;;;;;23.55;52.02;101075.88;5115867;28;20123;-88
2023/10/04 08:49:10;;;;;;;6.05;1.38;;;;;;;23.66;51.43;101073.53;5102406;27;20027;-85
2023/10/04 08:52:00;;;;;;;6.70;1.23;;;;;;;23.78;50.70;101069.41;5091255;28;20036;-87
2023/10/04 08:54:27;;;;;;;6.00;1.17;;;;;;;23.91;50.82;101072.38;5089962;28;20038;-90
2023/10/04 08:57:14;;;;;;;10.13;1.80;;;;;;;23.94;50.53;101077.63;5089913;28;20036;-86
2023/10/04 08:59:41;;;;;;;5.18;1.23;;;;;;;24.09;50.31;101065.28;5089785;28;20051;-89
2023/10/04 09:02:10;;;;;;;6.15;1.02;;;;;;;24.24;49.53;101069.06;5089275;28;20069;-87
2023/10/04 09:04:36;;;;;;;7.33;1.40;;;;;;;24.39;49.12;101061.19;5102174;28;20024;-85
2023/10/04 09:07:02;;;;;;;8.15;1.40;;;;;;;24.51;48.90;101053.34;5108201;28;20017;-86
2023/10/04 09:09:32;;;;;;;6.55;1.20;;;;;;;24.60;48.51;101049.34;5094745;28;20020;-86
2023/10/04 09:11:57;;;;;;;6.82;1.50;;;;;;;24.72;48.21;101049.69;5092531;28;20038;-87
2023/10/04 09:14:25;;;;;;;6.60;1.53;;;;;;;24.79;48.12;101048.44;5099271;28;20031;-86
2023/10/04 09:17:07;;;;;;;7.32;1.48;;;;;;;24.85;47.44;101042.72;5095856;28;20063;-86
2023/10/04 09:19:33;;;;;;;8.63;1.50;;;;;;;24.96;46.98;101039.47;5089679;28;20097;-86
2023/10/04 09:22:06;;;;;;;6.70;1.65;;;;;;;25.04;47.33;101036.38;5089037;28;20508;-85
2023/10/04 09:24:34;;;;;;;5.63;1.20;;;;;;;25.19;46.15;101040.06;5089117;28;20031;-86
2023/10/04 09:27:00;;;;;;;7.22;1.75;;;;;;;25.19;46.01;101032.00;5088206;28;20051;-85
2023/10/04 09:29:33;;;;;;;5.67;1.43;;;;;;;25.18;46.31;101033.78;5090757;28;20495;-87
2023/10/04 09:31:59;;;;;;;6.00;1.50;;;;;;;25.30;45.74;101026.03;5090429;28;20039;-86
2023/10/04 09:34:25;;;;;;;10.02;1.88;;;;;;;25.47;45.45;101028.72;5088677;28;20043;-82
2023/10/04 09:36:54;;;;;;;6.17;1.57;;;;;;;25.54;43.95;101022.97;5089439;28;20545;-84
2023/10/04 09:39:28;;;;;;;5.50;1.40;;;;;;;25.53;43.83;101029.31;5089127;28;20038;-84
2023/10/04 09:41:58;;;;;;;6.88;1.50;;;;;;;25.59;43.43;101028.97;5088784;28;20020;-85
2023/10/04 09:44:25;;;;;;;6.07;1.10;;;;;;;25.70;42.23;101026.56;5089723;28;20550;-86
2023/10/04 09:47:02;;;;;;;6.40;1.30;;;;;;;25.83;42.01;101023.16;5095716;28;20040;-83
2023/10/04 09:49:33;;;;;;;5.68;1.20;;;;;;;25.95;41.64;101017.09;5109609;28;20024;-86
2023/10/04 09:52:02;;;;;;;6.07;1.45;;;;;;;26.07;41.39;101015.50;5110073;28;20100;-89
2023/10/04 09:54:28;;;;;;;6.68;1.42;;;;;;;26.16;41.08;101014.09;5111161;28;20032;-88
2023/10/04 09:56:55;;;;;;;6.67;1.60;;;;;;;26.29;40.33;101009.75;5109856;28;20043;-85
2023/10/04 09:59:22;;;;;;;6.18;1.30;;;;;;;26.28;39.40;101021.53;5106564;28;20471;-89
2023/10/04 10:01:55;;;;;;;5.28;1.40;;;;;;;26.29;39.02;101020.56;5089488;28;20377;-90
2023/10/04 10:04:28;;;;;;;7.50;1.60;;;;;;;26.35;37.83;101014.78;5091957;28;20046;-82
2023/10/04 10:07:09;;;;;;;8.10;1.40;;;;;;;26.49;39.36;101018.53;5090256;28;20024;-87
2023/10/04 10:09:40;;;;;;;6.37;1.70;;;;;;;26.59;38.37;101016.16;5088964;28;20028;-86
2023/10/04 10:12:07;;;;;;;5.93;1.55;;;;;;;26.56;38.04;101013.63;5068366;28;20029;-84
2023/10/04 10:14:34;;;;;;;7.10;1.70;;;;;;;26.69;37.65;101011.91;5068294;28;20032;-84
2023/10/04 10:17:00;;;;;;;4.80;1.48;;;;;;;26.84;37.68;101003.84;5068261;28;20036;-83
2023/10/04 10:19:26;;;;;;;7.33;1.60;;;;;;;26.97;36.90;100998.59;5068729;28;20125;-79
2023/10/04 10:22:18;;;;;;;5.65;1.23;;;;;;;27.01;36.35;101003.72;5068601;28;20036;-81
2023/10/04 10:24:48;;;;;;;5.75;1.55;;;;;;;27.15;36.49;100993.88;5105126;28;20046;-82
2023/10/04 10:27:15;;;;;;;5.25;1.27;;;;;;;27.25;35.96;100981.53;5096095;28;20062;-83
2023/10/04 10:29:42;;;;;;;6.93;1.50;;;;;;;27.38;35.98;100981.63;5108563;28;20027;-81
2023/10/04 10:32:22;;;;;;;6.33;1.70;;;;;;;27.47;35.56;100972.91;5108338;28;20027;-82
2023/10/04 10:34:52;;;;;;;5.63;1.30;;;;;;;27.60;34.68;100977.53;5107847;28;20036;-84
2023/10/04 10:37:22;;;;;;;5.03;1.48;;;;;;;27.65;35.11;100973.56;5108398;28;20031;-81
2023/10/04 10:39:55;;;;;;;5.88;1.73;;;;;;;27.71;34.90;100983.13;5108715;28;20032;-81
2023/10/04 10:42:21;;;;;;;6.00;1.30;;;;;;;27.78;34.87;100976.34;5093742;28;20753;-81
2023/10/04 10:44:49;;;;;;;6.87;1.67;;;;;;;27.82;34.45;100973.44;5088530;28;20055;-80
2023/10/04 10:47:23;;;;;;;4.72;1.35;;;;;;;27.84;33.74;100974.19;5088256;28;20379;-82
2023/10/04 10:49:56;;;;;;;6.38;1.60;;;;;;;27.89;33.67;100974.78;5087041;28;20062;-80
2023/10/04 10:52:34;;;;;;;4.55;1.45;;;;;;;27.94;34.71;100964.50;5088506;28;20056;-80
2023/10/04 10:55:06;;;;;;;6.68;1.30;;;;;;;28.08;34.49;100963.59;5076732;28;20072;-79
2023/10/04 10:57:33;;;;;;;6.70;1.20;;;;;;;28.20;34.17;100964.63;5080475;28;20039;-80
2023/10/04 11:00:19;;;;;;;6.22;1.13;;;;;;;28.27;34.20;100967.78;5091359;28;20027;-81
2023/10/04 11:02:53;;;;;;;5.63;1.40;;;;;;;28.34;34.39;100969.09;5091273;28;20115;-78
2023/10/04 11:05:21;;;;;;;5.40;1.30;;;;;;;28.46;33.59;100970.09;5092618;28;20020;-76
2023/10/04 11:07:47;;;;;;;5.35;1.40;;;;;;;28.49;33.30;100961.75;5085140;28;20074;-76
2023/10/04 11:10:17;;;;;;;6.63;1.27;;;;;;;28.46;33.68;100952.03;5087538;28;20019;-76
2023/10/04 11:12:47;;;;;;;6.05;1.20;;;;;;;28.43;33.08;100954.06;5091509;28;20563;-77
2023/10/04 11:15:13;;;;;;;5.30;1.30;;;;;;;28.47;33.12;100958.28;5086219;28;20060;-77
2023/10/04 11:17:39;;;;;;;6.47;1.40;;;;;;;28.50;33.06;100950.84;5070025;28;20083;-79
2023/10/04 11:20:09;;;;;;;7.05;1.42;;;;;;;28.54;33.04;100953.31;5081712;28;20031;-81
2023/10/04 11:22:37;;;;;;;6.63;1.33;;;;;;;28.58;33.13;100950.31;5091336;28;20063;-78
2023/10/04 11:25:04;;;;;;;6.53;1.45;;;;;;;28.56;32.40;100946.81;5091375;28;20063;-77
2023/10/04 11:27:32;;;;;;;5.43;1.40;;;;;;;28.46;32.29;100948.44;5070854;28;20036;-77
2023/10/04 11:29:59;;;;;;;7.47;1.40;;;;;;;28.41;32.72;100946.03;5071047;28;20021;-80